createdAt,value
2022-10-05T21:37:02.321Z,99955.66
2022-10-05T21:39:30.646Z,99944.53
2022-10-05T21:41:58.845Z,99945.56
2022-10-05T21:44:26.959Z,99947.59
2022-10-05T21:46:56.198Z,99947.97
2022-10-05T21:49:24.620Z,99957.03
2022-10-05T21:51:52.797Z,99951.28
2022-10-05T21:54:23.681Z,99956.19
2022-10-05T21:56:52.768Z,99970.31
2022-10-05T21:59:23.534Z,99967.78
2022-10-05T22:01:52.497Z,99975.03
2022-10-05T22:04:20.603Z,99977.72
2022-10-05T22:06:49.150Z,99977.53
2022-10-05T22:09:17.245Z,99985.41
2022-10-05T22:11:49.308Z,99994.66
2022-10-05T22:14:17.540Z,99983.41
2022-10-05T22:16:45.996Z,99980.69
2022-10-05T22:19:17.471Z,99984.22
2022-10-05T22:21:45.592Z,99976.72
2022-10-05T22:27:00.490Z,99985.59
2022-10-05T22:29:28.591Z,99985.41
2022-10-05T22:31:57.007Z,99986.09
2022-10-05T22:34:25.272Z,99991.81
2022-10-05T22:36:53.471Z,99992.47
2022-10-05T22:39:21.627Z,99996.28
2022-10-05T22:41:50.488Z,99989.06
2022-10-05T22:44:19.984Z,99983.50
2022-10-05T22:46:48.112Z,99983.31
2022-10-05T22:49:16.239Z,99983.97
2022-10-05T22:51:44.292Z,99976.63
2022-10-05T22:54:12.357Z,99982.16
2022-10-05T22:56:40.450Z,99982.16
2022-10-05T22:59:08.514Z,99982.25
2022-10-05T23:01:38.029Z,99982.34
2022-10-05T23:04:08.068Z,99984.31
2022-10-05T23:06:36.106Z,99986.44
2022-10-05T23:09:04.287Z,99991.75
2022-10-05T23:11:32.390Z,99983.31
2022-10-05T23:14:00.736Z,99985.53
2022-10-05T23:16:29.774Z,99987.31
2022-10-05T23:19:00.267Z,99987.59
2022-10-05T23:21:29.712Z,99982.03
2022-10-05T23:23:57.791Z,99983.41
2022-10-05T23:26:26.176Z,99983.78
2022-10-05T23:28:54.598Z,99986.47
2022-10-05T23:31:23.548Z,99989.81
2022-10-05T23:33:52.157Z,99993.16
2022-10-05T23:36:23.325Z,99986.94
2022-10-05T23:38:51.791Z,99992.50
2022-10-05T23:41:20.735Z,99990.09
2022-10-05T23:43:49.217Z,99995.00
2022-10-05T23:46:17.782Z,99995.69
2022-10-05T23:48:45.962Z,99991.56
2022-10-05T23:51:15.624Z,99991.66
2022-10-05T23:53:45.111Z,99990.09
2022-10-05T23:56:13.523Z,99999.66
2022-10-05T23:58:42.003Z,99987.97
